Time;durP1;ratioP1;P1;durP2;ratioP2;P2;SDS_P1;SDS_P2;PMS_P1;PMS_P2;Temp;Humidity;BMP_temperature;BMP_pressure;BME280_temperature;BME280_humidity;BME280_pressure;Samples;Min_cycle;Max_cycle;Signal;HPM_P1;HPM_P2
2022/10/20 00:00:13;;;;;;;3.00;1.83;;;;;;;17.34;100.00;101773.81;20898491;28;20045;-76
2022/10/20 00:10:16;;;;;;;3.45;1.90;;;;;;;17.34;100.00;101771.13;20885425;28;20136;-76
2022/10/20 00:20:17;;;;;;;3.15;1.90;;;;;;;16.92;100.00;101688.84;20884519;28;20131;-76
2022/10/20 00:30:19;;;;;;;2.92;1.70;;;;;;;17.06;100.00;101704.03;20887903;28;20523;-76
2022/10/20 00:40:24;;;;;;;2.90;1.50;;;;;;;17.13;100.00;101701.72;20889311;28;20408;-76
2022/10/20 00:50:39;;;;;;;2.90;1.50;;;;;;;17.06;100.00;101676.25;20887821;28;20072;-76
2022/10/20 01:00:41;;;;;;;1.95;1.58;;;;;;;17.30;100.00;101713.09;20894676;28;20132;-76
2022/10/20 01:10:59;;;;;;;1.77;1.33;;;;;;;17.21;100.00;101674.28;20893250;28;20055;-76
2022/10/20 01:21:04;;;;;;;1.75;1.40;;;;;;;17.29;100.00;101679.09;20889219;28;20052;-76
2022/10/20 01:31:16;;;;;;;2.43;1.37;;;;;;;17.29;100.00;101652.19;20881077;28;20152;-76
2022/10/20 01:41:31;;;;;;;1.88;1.58;;;;;;;17.28;100.00;101628.94;20869546;28;20080;-76
2022/10/20 01:51:33;;;;;;;2.07;1.50;;;;;;;17.27;100.00;101630.75;20861327;28;20493;-76
2022/10/20 02:01:53;;;;;;;1.95;1.33;;;;;;;17.27;100.00;101609.22;20890425;28;20801;-76
2022/10/20 02:12:02;;;;;;;2.30;1.20;;;;;;;17.18;100.00;101589.22;20847718;28;20060;-76
2022/10/20 02:22:05;;;;;;;1.77;1.15;;;;;;;17.15;100.00;101567.09;20876025;28;20049;-76
2022/10/20 02:32:08;;;;;;;2.17;1.52;;;;;;;17.25;100.00;101578.88;20879764;28;20063;-76
2022/10/20 02:42:11;;;;;;;1.73;1.40;;;;;;;17.24;100.00;101564.59;20827835;28;20446;-76
2022/10/20 02:52:12;;;;;;;1.70;1.30;;;;;;;17.24;100.00;101564.59;20853133;28;20053;-76
2022/10/20 03:02:14;;;;;;;2.70;1.40;;;;;;;17.25;100.00;101534.00;20887005;28;20051;-76
2022/10/20 03:12:15;;;;;;;2.00;1.15;;;;;;;17.22;100.00;101507.31;20883717;28;20678;-76
2022/10/20 03:22:17;;;;;;;1.63;1.17;;;;;;;17.24;100.00;101501.81;20885045;28;20041;-76
2022/10/20 03:32:18;;;;;;;1.58;1.20;;;;;;;17.23;100.00;101487.53;20904708;28;20140;-76
2022/10/20 03:42:20;;;;;;;1.58;1.05;;;;;;;17.21;100.00;101470.59;20877526;28;20107;-76
2022/10/20 03:52:21;;;;;;;1.38;0.90;;;;;;;17.21;100.00;101459.84;20894203;28;20052;-76
2022/10/20 04:02:52;;;;;;;1.73;1.38;;;;;;;17.20;100.00;101428.53;20830752;28;20050;-76
2022/10/20 04:12:57;;;;;;;1.80;0.98;;;;;;;17.21;100.00;101424.88;20854507;28;20078;-76
2022/10/20 04:22:58;;;;;;;1.57;1.10;;;;;;;17.16;100.00;101402.84;20829288;28;20128;-76
2022/10/20 04:32:59;;;;;;;1.67;1.27;;;;;;;17.09;100.00;101388.16;20851821;28;20156;-75
2022/10/20 04:43:01;;;;;;;2.97;1.30;;;;;;;16.92;100.00;101343.72;20849111;28;20084;-75
2022/10/20 04:53:02;;;;;;;2.47;1.30;;;;;;;17.25;100.00;101380.63;20848252;28;20106;-75
2022/10/20 05:03:04;;;;;;;1.77;1.25;;;;;;;17.29;100.00;101385.75;20879979;28;20052;-75
2022/10/20 05:13:05;;;;;;;2.85;1.40;;;;;;;17.30;100.00;101353.34;20872922;28;20126;-75
2022/10/20 05:23:07;;;;;;;2.88;1.40;;;;;;;17.22;100.00;101313.56;20870581;28;20079;-76
2022/10/20 05:33:09;;;;;;;2.85;1.70;;;;;;;17.33;100.00;101322.66;20877473;28;20136;-75
2022/10/20 05:43:11;;;;;;;1.60;1.15;;;;;;;17.34;99.85;101286.69;20852977;28;20060;-75
2022/10/20 05:53:12;;;;;;;1.60;1.15;;;;;;;17.36;98.59;101263.19;20805586;28;20046;-75
2022/10/20 06:03:14;;;;;;;1.73;1.13;;;;;;;17.36;98.19;101279.34;20794180;28;20045;-75
2022/10/20 06:13:19;;;;;;;;;;;;;;;17.36;97.48;101253.28;20808396;28;20049;-75
2022/10/20 06:23:20;;;;;;;1.55;1.30;;;;;;;17.38;97.11;101234.31;20801794;28;19925;-76
2022/10/20 06:33:22;;;;;;;1.88;1.20;;;;;;;17.39;96.63;101249.50;20799439;28;20188;-76
2022/10/20 06:43:23;;;;;;;2.95;1.60;;;;;;;17.35;96.05;101232.72;20812454;28;20049;-75
2022/10/20 06:53:26;;;;;;;2.70;1.70;;;;;;;17.35;95.73;101213.88;20877984;28;20048;-75
2022/10/20 07:03:28;;;;;;;1.27;1.17;;;;;;;17.41;95.33;101252.91;20869835;28;20053;-75
2022/10/20 07:13:30;;;;;;;1.60;1.40;;;;;;;17.42;95.12;101241.16;20870634;28;20056;-75
2022/10/20 07:23:32;;;;;;;1.55;1.20;;;;;;;17.44;95.68;101244.59;20894497;28;20780;-75
2022/10/20 07:33:34;;;;;;;1.50;1.30;;;;;;;17.41;95.92;101228.69;20910880;28;20733;-75
2022/10/20 07:43:37;;;;;;;1.40;1.30;;;;;;;17.37;96.92;101216.47;20906742;28;20053;-76
2022/10/20 07:53:38;;;;;;;3.35;1.33;;;;;;;17.34;97.68;101209.47;20866680;28;20448;-75
2022/10/20 08:03:40;;;;;;;1.60;1.27;;;;;;;17.34;97.85;101196.03;20802883;28;20049;-76
2022/10/20 08:13:41;;;;;;;1.65;1.20;;;;;;;17.35;98.58;101213.03;20799810;28;20189;-76
2022/10/20 08:23:45;;;;;;;1.42;1.23;;;;;;;17.32;99.00;101181.00;20882954;28;20056;-78
2022/10/20 08:33:46;;;;;;;1.45;1.33;;;;;;;17.31;99.23;101155.91;20882108;28;20056;-76
2022/10/20 08:43:55;;;;;;;1.65;1.20;;;;;;;17.21;99.51;101131.59;20881825;28;20053;-75
2022/10/20 08:53:58;;;;;;;1.85;1.10;;;;;;;17.30;99.91;101139.91;20862768;28;20041;-76
2022/10/20 09:04:18;;;;;;;1.63;1.40;;;;;;;17.30;100.00;101118.38;20878475;28;20111;-75
2022/10/20 09:14:20;;;;;;;1.50;1.30;;;;;;;17.30;100.00;101123.78;20877202;28;20055;-75
2022/10/20 09:24:23;;;;;;;1.33;1.10;;;;;;;16.91;100.00;101048.88;20876181;28;20056;-75
2022/10/20 09:34:32;;;;;;;1.33;1.15;;;;;;;17.28;100.00;101118.50;20844810;28;20119;-75
2022/10/20 09:44:44;;;;;;;1.92;1.13;;;;;;;17.28;100.00;101082.69;20880602;28;20091;-76
2022/10/20 09:54:46;;;;;;;1.17;1.08;;;;;;;17.28;100.00;101066.53;20874054;28;20052;-76
2022/10/20 10:04:52;;;;;;;1.42;1.23;;;;;;;17.07;100.00;101008.16;20919691;28;20115;-76
2022/10/20 10:15:31;;;;;;;1.55;1.20;;;;;;;16.96;100.00;100980.28;20873513;28;20071;-76
2022/10/20 10:25:32;;;;;;;1.45;1.20;;;;;;;16.86;100.00;100957.84;20873543;28;20132;-76
2022/10/20 10:35:40;;;;;;;4.65;1.30;;;;;;;17.27;100.00;101017.22;20876144;28;20075;-76
2022/10/20 10:45:50;;;;;;;1.75;1.40;;;;;;;17.19;100.00;100993.66;20780629;28;20409;-76
2022/10/20 10:56:15;;;;;;;3.30;1.27;;;;;;;17.27;100.00;101006.47;20778965;28;21876;-76
2022/10/20 11:06:28;;;;;;;1.80;1.20;;;;;;;17.25;100.00;100995.84;20782344;28;20318;-76
2022/10/20 11:16:40;;;;;;;3.72;1.63;;;;;;;17.26;100.00;101002.06;20784273;28;20049;-76
2022/10/20 11:26:50;;;;;;;3.63;1.50;;;;;;;17.21;100.00;100980.94;20781136;28;20050;-76
2022/10/20 11:37:01;;;;;;;2.35;1.02;;;;;;;17.25;100.00;100977.03;20775159;28;20050;-76
2022/10/20 11:47:05;;;;;;;3.13;1.33;;;;;;;17.03;100.00;100924.19;20864631;28;20060;-76
2022/10/20 11:57:22;;;;;;;3.27;1.57;;;;;;;17.08;100.00;100921.09;20862232;28;20156;-76
2022/10/20 12:07:54;;;;;;;1.80;1.45;;;;;;;17.23;100.00;100945.84;20849712;28;20045;-77
2022/10/20 12:18:25;;;;;;;5.15;1.42;;;;;;;17.23;100.00;100935.06;20864538;28;20141;-76
2022/10/20 12:28:28;;;;;;;2.67;1.50;;;;;;;17.23;100.00;100925.19;20862313;28;20060;-76
2022/10/20 12:38:30;;;;;;;4.68;1.75;;;;;;;17.10;100.00;100908.34;20874397;28;20428;-76
2022/10/20 12:48:33;;;;;;;2.97;1.38;;;;;;;16.95;100.00;100880.91;20871351;28;20501;-76
2022/10/20 12:58:37;;;;;;;3.20;1.20;;;;;;;17.11;100.00;100888.53;20868596;28;20134;-76
2022/10/20 13:08:38;;;;;;;3.17;1.23;;;;;;;17.22;100.00;100896.53;20847258;28;20096;-77
2022/10/20 13:18:44;;;;;;;3.15;1.25;;;;;;;17.12;100.00;100878.66;20847869;28;20075;-76
2022/10/20 13:28:47;;;;;;;2.13;1.38;;;;;;;17.22;100.00;100893.00;20861779;28;20049;-76
2022/10/20 13:39:05;;;;;;;3.08;1.70;;;;;;;16.53;100.00;100774.22;20852581;28;20056;-76
2022/10/20 13:49:39;;;;;;;2.85;1.35;;;;;;;17.22;100.00;100890.31;20844914;28;20063;-76
2022/10/20 14:00:03;;;;;;;2.53;1.50;;;;;;;17.22;100.00;100887.63;20827543;28;20143;-76
2022/10/20 14:10:19;;;;;;;2.93;1.40;;;;;;;17.20;100.00;100857.31;20849135;28;20122;-76
2022/10/20 14:20:21;;;;;;;2.63;1.20;;;;;;;17.20;100.00;100844.69;20850121;28;20056;-76
2022/10/20 14:30:23;;;;;;;2.03;1.02;;;;;;;17.17;100.00;100839.59;20853191;28;20436;-75
2022/10/20 14:40:30;;;;;;;3.05;1.40;;;;;;;17.25;100.00;100826.34;20852830;28;20568;-75
2022/10/20 14:50:33;;;;;;;2.55;1.23;;;;;;;17.32;100.00;100790.84;20871205;28;20382;-75
2022/10/20 15:00:35;;;;;;;2.05;1.25;;;;;;;17.39;100.00;100816.22;20833450;28;20405;-74
2022/10/20 15:10:37;;;;;;;2.78;1.30;;;;;;;17.42;100.00;100799.78;20828394;28;20064;-75
2022/10/20 15:20:39;;;;;;;3.90;1.42;;;;;;;17.44;100.00;100795.13;20852908;28;20513;-79
2022/10/20 15:30:41;;;;;;;2.50;1.40;;;;;;;17.45;100.00;100772.59;20847978;28;20056;-77
2022/10/20 15:40:42;;;;;;;1.50;1.30;;;;;;;17.47;100.00;100776.00;20836869;28;20103;-75
2022/10/20 15:50:44;;;;;;;4.65;1.63;;;;;;;17.49;100.00;100760.56;20837335;28;20048;-74
2022/10/20 16:00:46;;;;;;;2.15;1.23;;;;;;;17.50;100.00;100758.75;20849909;28;20052;-75
2022/10/20 16:10:47;;;;;;;1.80;1.23;;;;;;;17.50;100.00;100754.19;20831550;28;20072;-75
2022/10/20 16:20:49;;;;;;;2.28;1.40;;;;;;;17.52;100.00;100754.91;20848424;28;20134;-75
2022/10/20 16:31:00;;;;;;;1.38;1.20;;;;;;;17.52;100.00;100752.22;20854334;28;20519;-75
2022/10/20 16:41:07;;;;;;;1.80;1.30;;;;;;;17.32;100.00;100720.88;20879503;28;20076;-75
2022/10/20 16:51:10;;;;;;;2.00;1.30;;;;;;;17.52;100.00;100746.00;20839393;28;20079;-75
2022/10/20 17:01:12;;;;;;;1.60;1.35;;;;;;;17.53;100.00;100747.72;20829360;28;20052;-75
2022/10/20 17:11:17;;;;;;;2.13;1.40;;;;;;;17.53;100.00;100743.16;20795824;28;20566;-75
2022/10/20 17:21:19;;;;;;;2.65;1.30;;;;;;;17.48;100.00;100734.66;20836411;28;20448;-75
2022/10/20 17:31:21;;;;;;;1.38;1.27;;;;;;;17.46;100.00;100733.09;20835791;28;20410;-74
2022/10/20 17:41:23;;;;;;;1.30;1.15;;;;;;;17.35;100.00;100721.44;20808378;28;20055;-75
2022/10/20 17:51:25;;;;;;;1.35;1.25;;;;;;;17.56;100.00;100743.88;20841590;28;20658;-75
2022/10/20 18:01:34;;;;;;;2.17;1.35;;;;;;;17.47;100.00;100732.94;20858019;28;20063;-74
2022/10/20 18:11:37;;;;;;;1.45;1.27;;;;;;;17.56;100.00;100746.56;20873036;28;20138;-75
2022/10/20 18:21:38;;;;;;;3.72;1.95;;;;;;;17.59;100.00;100746.28;20874163;28;20059;-75
2022/10/20 18:31:41;;;;;;;2.35;1.88;;;;;;;17.63;100.00;100731.56;20860486;28;20670;-76
2022/10/20 18:41:44;;;;;;;2.13;1.92;;;;;;;17.32;100.00;100691.28;20866526;28;20493;-75
2022/10/20 18:51:46;;;;;;;2.50;1.77;;;;;;;17.43;100.00;100701.91;20889611;28;20065;-75
2022/10/20 19:01:47;;;;;;;1.95;1.60;;;;;;;17.50;100.00;100708.44;20887845;28;20566;-75
2022/10/20 19:11:49;;;;;;;3.42;1.90;;;;;;;17.47;100.00;100695.25;20888606;28;20400;-75
2022/10/20 19:21:55;;;;;;;2.63;1.90;;;;;;;17.20;100.00;100651.00;20886607;28;20503;-75
2022/10/20 19:31:59;;;;;;;3.35;1.90;;;;;;;17.42;100.00;100676.00;20885565;28;20520;-75
2022/10/20 19:42:02;;;;;;;2.25;1.85;;;;;;;17.39;100.00;100666.34;20868447;28;20099;-75
2022/10/20 19:52:04;;;;;;;2.35;1.85;;;;;;;17.38;100.00;100670.03;20883943;28;20505;-75
2022/10/20 20:02:06;;;;;;;2.00;1.80;;;;;;;17.36;100.00;100677.38;20865900;28;20057;-76
2022/10/20 20:12:07;;;;;;;1.60;1.50;;;;;;;17.36;100.00;100658.56;20884802;28;20508;-76
2022/10/20 20:22:09;;;;;;;1.80;1.60;;;;;;;17.36;100.00;100660.41;20883055;28;20405;-76
2022/10/20 20:32:10;;;;;;;2.10;1.65;;;;;;;17.35;100.00;100642.56;20881825;28;20053;-75
2022/10/20 20:42:12;;;;;;;2.13;1.60;;;;;;;17.34;100.00;100627.41;20882259;28;20053;-76
2022/10/20 20:52:13;;;;;;;1.70;1.60;;;;;;;17.07;100.00;100580.50;20880915;28;20060;-76
2022/10/20 21:02:15;;;;;;;2.05;1.55;;;;;;;17.32;100.00;100614.09;20879592;28;20567;-76
2022/10/20 21:12:17;;;;;;;2.00;1.70;;;;;;;17.32;100.00;100637.47;20878254;28;20135;-76
2022/10/20 21:22:18;;;;;;;2.17;1.70;;;;;;;17.30;100.00;100634.06;20878586;28;20111;-75
2022/10/20 21:32:20;;;;;;;1.92;1.50;;;;;;;17.30;100.00;100634.06;20876620;28;20053;-78
2022/10/20 21:42:21;;;;;;;1.52;1.40;;;;;;;16.82;100.00;100567.38;20877397;28;20045;-75
2022/10/20 21:52:23;;;;;;;2.10;1.60;;;;;;;17.28;100.00;100625.28;20876923;28;20052;-76
2022/10/20 22:02:24;;;;;;;2.50;1.90;;;;;;;17.29;100.00;100637.75;20875813;28;20128;-75
2022/10/20 22:12:26;;;;;;;2.55;1.73;;;;;;;17.16;100.00;100625.38;20876164;28;20076;-75
2022/10/20 22:22:29;;;;;;;1.65;1.55;;;;;;;17.06;100.00;100594.94;20874790;28;20094;-75
2022/10/20 22:32:31;;;;;;;1.90;1.58;;;;;;;17.26;100.00;100622.72;20875320;28;20057;-75
2022/10/20 22:42:32;;;;;;;1.65;1.55;;;;;;;17.27;100.00;100623.59;20875025;28;20049;-76
2022/10/20 22:52:34;;;;;;;1.92;1.52;;;;;;;17.27;100.00;100612.81;20883204;28;20136;-76
2022/10/20 23:02:36;;;;;;;1.85;1.60;;;;;;;17.25;100.00;100603.06;20887791;28;20115;-76
2022/10/20 23:12:38;;;;;;;3.00;1.48;;;;;;;17.25;100.00;100597.66;20888396;28;20053;-76
2022/10/20 23:22:40;;;;;;;1.92;1.73;;;;;;;17.25;100.00;100583.34;20888051;28;20091;-76
2022/10/20 23:32:41;;;;;;;1.60;1.50;;;;;;;17.17;100.00;100573.28;20887133;28;20060;-76
2022/10/20 23:42:43;;;;;;;2.17;1.58;;;;;;;17.06;100.00;100549.19;20886354;28;20044;-76
2022/10/20 23:52:44;;;;;;;1.38;1.23;;;;;;;16.94;100.00;100535.84;20884417;28;20143;-78
